Time;durP1;ratioP1;P1;durP2;ratioP2;P2;SDS_P1;SDS_P2;PMS_P1;PMS_P2;Temp;Humidity;BMP_temperature;BMP_pressure;BME280_temperature;BME280_humidity;BME280_pressure;Samples;Min_cycle;Max_cycle;Signal;HPM_P1;HPM_P2
2022/09/19 00:01:37;;;;;;;4.40;1.77;;;8.20;98.00;;;;;;5073038;28;20029;-69
2022/09/19 00:04:04;;;;;;;5.82;2.00;;;8.20;97.90;;;;;;5073937;28;20025;-69
2022/09/19 00:06:32;;;;;;;4.63;1.70;;;8.20;98.00;;;;;;5072222;28;20107;-69
2022/09/19 00:09:00;;;;;;;4.15;1.50;;;8.20;98.00;;;;;;5070722;28;20040;-69
2022/09/19 00:11:30;;;;;;;3.22;1.65;;;8.20;98.00;;;;;;5070763;28;20024;-68
2022/09/19 00:13:57;;;;;;;3.00;1.52;;;8.20;98.00;;;;;;5071390;28;20063;-69
2022/09/19 00:16:31;;;;;;;3.63;1.52;;;8.20;98.00;;;;;;5064529;28;20115;-68
2022/09/19 00:18:58;;;;;;;;;;;8.20;98.00;;;;;;5066561;28;20413;-69
2022/09/19 00:21:29;;;;;;;3.45;1.65;;;8.20;97.60;;;;;;5072796;28;20293;-69
2022/09/19 00:26:40;;;;;;;5.43;1.75;;;8.10;97.20;;;;;;5061385;28;20059;-69
2022/09/19 00:29:08;;;;;;;6.10;1.77;;;8.10;97.00;;;;;;5061864;28;20044;-69
2022/09/19 00:31:34;;;;;;;3.83;1.80;;;8.20;96.60;;;;;;5063488;28;20107;-69
2022/09/19 00:34:00;;;;;;;4.50;1.95;;;8.10;96.80;;;;;;5066237;28;20042;-70
2022/09/19 00:36:30;;;;;;;4.43;1.80;;;8.10;95.40;;;;;;5064395;28;20414;-70
2022/09/19 00:38:55;;;;;;;5.88;2.63;;;8.10;94.60;;;;;;5069117;28;20376;-72
2022/09/19 00:41:26;;;;;;;5.45;2.03;;;8.00;93.90;;;;;;5065828;28;20028;-71
2022/09/19 00:43:54;;;;;;;5.85;2.35;;;8.00;92.10;;;;;;5063429;28;20029;-71
2022/09/19 00:46:22;;;;;;;4.75;2.35;;;7.90;90.60;;;;;;5064921;28;20020;-71
2022/09/19 00:48:53;;;;;;;6.00;3.17;;;7.80;89.60;;;;;;5064096;28;20029;-71
2022/09/19 00:51:47;;;;;;;4.40;3.10;;;7.80;88.90;;;;;;5067046;28;20021;-70
2022/09/19 00:54:17;;;;;;;6.63;3.22;;;7.80;86.50;;;;;;5063014;28;20021;-70
2022/09/19 00:56:46;;;;;;;8.80;3.88;;;7.80;85.30;;;;;;5062284;28;20032;-72
2022/09/19 00:59:12;;;;;;;5.85;3.65;;;7.70;84.50;;;;;;5073709;28;20313;-70
2022/09/19 01:01:39;;;;;;;7.25;4.30;;;7.70;83.60;;;;;;5073267;28;20059;-71
2022/09/19 01:04:16;;;;;;;8.35;3.83;;;7.70;83.10;;;;;;5068297;28;20028;-71
2022/09/19 01:07:14;;;;;;;6.05;3.58;;;7.70;82.20;;;;;;5063329;28;20043;-73
2022/09/19 01:10:06;;;;;;;9.60;3.50;;;7.70;82.00;;;;;;5046551;28;20043;-73
2022/09/19 01:12:51;;;;;;;7.57;5.10;;;7.60;81.50;;;;;;5043923;28;20111;-71
2022/09/19 01:15:38;;;;;;;5.07;3.13;;;7.60;81.40;;;;;;5045525;28;20787;-70
2022/09/19 01:18:10;;;;;;;6.30;4.43;;;7.60;80.70;;;;;;5050133;28;20112;-71
2022/09/19 01:20:42;;;;;;;6.88;4.72;;;7.50;80.40;;;;;;5029491;28;20091;-71
2022/09/19 01:23:23;;;;;;;9.50;4.85;;;7.60;80.00;;;;;;5048112;28;20024;-71
2022/09/19 01:26:11;;;;;;;8.60;4.05;;;7.50;79.60;;;;;;5049039;28;20025;-71
2022/09/19 01:28:46;;;;;;;7.85;4.13;;;7.60;79.30;;;;;;5034926;28;20029;-71
2022/09/19 01:31:27;;;;;;;8.48;4.35;;;7.60;79.40;;;;;;5050518;28;20028;-72
2022/09/19 01:34:02;;;;;;;5.97;3.70;;;7.60;79.30;;;;;;5039057;28;20033;-71
2022/09/19 01:36:32;;;;;;;8.82;4.15;;;7.60;79.00;;;;;;5034167;28;20048;-70
2022/09/19 01:39:01;;;;;;;4.68;3.08;;;7.60;79.30;;;;;;5030522;28;20080;-71
2022/09/19 01:41:30;;;;;;;5.15;3.58;;;7.60;78.50;;;;;;5051870;28;20422;-71
2022/09/19 01:44:05;;;;;;;7.03;4.03;;;7.60;78.50;;;;;;5049412;28;20048;-71
2022/09/19 01:47:13;;;;;;;6.18;4.60;;;7.60;78.70;;;;;;5043259;28;20033;-71
2022/09/19 01:50:00;;;;;;;7.47;4.63;;;7.50;78.60;;;;;;5040035;28;20029;-71
2022/09/19 01:52:59;;;;;;;6.85;3.45;;;7.50;78.90;;;;;;5048513;28;20108;-71
2022/09/19 01:55:33;;;;;;;5.13;3.53;;;7.50;78.30;;;;;;5046194;28;20039;-71
2022/09/19 01:58:11;;;;;;;;;;;7.60;78.20;;;;;;5046360;28;20325;-71
2022/09/19 02:00:43;;;;;;;8.40;3.97;;;7.50;78.40;;;;;;5049691;28;19916;-70
2022/09/19 02:03:46;;;;;;;6.03;3.95;;;7.50;78.50;;;;;;5023923;28;20484;-70
2022/09/19 02:06:42;;;;;;;6.63;4.05;;;7.40;78.70;;;;;;5037003;28;20368;-70
2022/09/19 02:09:26;;;;;;;7.82;3.80;;;7.30;79.00;;;;;;5052366;28;20033;-70
2022/09/19 02:11:52;;;;;;;;;;;7.20;78.50;;;;;;5034483;28;20446;-71
2022/09/19 02:14:21;;;;;;;5.45;3.65;;;7.20;78.60;;;;;;5048341;28;19913;-71
2022/09/19 02:17:00;;;;;;;8.50;4.20;;;7.10;78.40;;;;;;5044240;28;20025;-70
2022/09/19 02:19:32;;;;;;;6.80;4.35;;;7.10;77.90;;;;;;5053077;28;20021;-70
2022/09/19 02:22:05;;;;;;;5.68;3.65;;;7.10;77.50;;;;;;5046163;28;20025;-70
2022/09/19 02:24:36;;;;;;;7.90;4.75;;;7.20;77.20;;;;;;5053120;28;20079;-70
2022/09/19 02:27:28;;;;;;;7.35;3.97;;;7.20;77.00;;;;;;5045663;28;20315;-70
2022/09/19 02:30:00;;;;;;;7.10;3.25;;;7.30;77.00;;;;;;5037037;28;20055;-70
2022/09/19 02:32:26;;;;;;;10.10;4.32;;;7.30;77.50;;;;;;5028338;28;20313;-71
2022/09/19 02:34:55;;;;;;;4.47;2.65;;;7.10;78.30;;;;;;5055585;28;20131;-70
2022/09/19 02:37:43;;;;;;;5.68;3.08;;;7.00;78.50;;;;;;5052481;28;20025;-70
2022/09/19 02:40:30;;;;;;;4.40;2.80;;;6.90;77.90;;;;;;5046242;28;20040;-71
2022/09/19 02:43:03;;;;;;;4.68;2.92;;;6.90;78.10;;;;;;5052572;28;20025;-70
2022/09/19 02:45:39;;;;;;;5.85;3.28;;;6.80;77.80;;;;;;5052870;28;20086;-69
2022/09/19 02:48:08;;;;;;;6.50;4.15;;;6.70;78.80;;;;;;5054943;28;20025;-70
2022/09/19 02:50:44;;;;;;;6.35;3.17;;;6.60;78.80;;;;;;5051738;28;20352;-71
2022/09/19 02:53:17;;;;;;;6.20;2.80;;;6.60;78.60;;;;;;5053425;28;20448;-70
2022/09/19 02:55:49;;;;;;;4.65;3.00;;;6.50;78.40;;;;;;5044998;28;20303;-70
2022/09/19 02:58:16;;;;;;;5.95;3.40;;;6.50;77.70;;;;;;5055160;28;20017;-70
2022/09/19 03:00:46;;;;;;;5.45;2.88;;;6.50;77.50;;;;;;5045571;28;20531;-71
2022/09/19 03:06:27;;;;;;;6.30;2.80;;;6.50;77.90;;;;;;5047979;28;20103;-70
2022/09/19 03:08:56;;;;;;;6.55;2.60;;;6.40;78.30;;;;;;5045272;28;20306;-71
2022/09/19 03:11:26;;;;;;;5.65;2.70;;;6.40;77.70;;;;;;5050973;28;20356;-70
2022/09/19 03:13:58;;;;;;;6.25;2.80;;;6.40;78.10;;;;;;5031862;28;20035;-70
2022/09/19 03:16:39;;;;;;;6.40;3.45;;;6.40;78.30;;;;;;5050945;28;20033;-70
2022/09/19 03:19:07;;;;;;;5.53;2.70;;;6.30;78.60;;;;;;5051659;28;20287;-69
2022/09/19 03:21:37;;;;;;;4.70;2.30;;;6.30;78.40;;;;;;5041567;28;20021;-70
2022/09/19 03:24:03;;;;;;;5.70;2.28;;;6.20;78.80;;;;;;5045473;28;20108;-70
2022/09/19 03:26:34;;;;;;;6.38;2.25;;;6.20;79.70;;;;;;5050521;28;20033;-70
2022/09/19 03:29:08;;;;;;;5.75;2.45;;;6.20;80.00;;;;;;5045433;28;20036;-70
2022/09/19 03:31:34;;;;;;;4.53;2.00;;;6.10;80.50;;;;;;5051069;28;20078;-70
2022/09/19 03:33:59;;;;;;;5.13;2.20;;;6.00;80.30;;;;;;5062177;28;20318;-70
2022/09/19 03:36:28;;;;;;;5.50;2.53;;;6.00;80.80;;;;;;5049056;28;20036;-70
2022/09/19 03:39:00;;;;;;;5.35;2.42;;;6.00;80.50;;;;;;5032096;28;20075;-70
2022/09/19 03:41:26;;;;;;;4.78;2.00;;;5.90;81.30;;;;;;5042745;28;20025;-70
2022/09/19 03:43:51;;;;;;;6.25;2.63;;;5.80;81.20;;;;;;5053150;28;20025;-70
2022/09/19 03:46:22;;;;;;;6.93;2.50;;;5.70;81.30;;;;;;5052975;28;20051;-70
2022/09/19 03:48:48;;;;;;;3.60;1.58;;;5.70;80.90;;;;;;5048757;28;20087;-70
2022/09/19 03:51:16;;;;;;;6.95;2.17;;;5.60;80.40;;;;;;5049368;28;20025;-69
2022/09/19 03:53:45;;;;;;;7.35;2.40;;;5.60;81.60;;;;;;5048405;28;20037;-69
2022/09/19 03:56:15;;;;;;;6.45;1.90;;;5.60;82.20;;;;;;5026203;28;20049;-69
2022/09/19 03:58:41;;;;;;;4.85;1.70;;;5.60;83.40;;;;;;5053583;28;20029;-69
2022/09/19 04:01:08;;;;;;;8.68;2.40;;;5.60;83.30;;;;;;5047926;28;20364;-69
2022/09/19 04:03:35;;;;;;;6.90;2.38;;;5.50;84.30;;;;;;5055241;28;20028;-69
2022/09/19 04:06:01;;;;;;;6.00;2.42;;;5.50;84.50;;;;;;5042773;28;20060;-69
2022/09/19 04:08:28;;;;;;;7.55;2.75;;;5.50;85.20;;;;;;5033885;28;20037;-69
2022/09/19 04:10:59;;;;;;;4.35;2.22;;;5.50;85.40;;;;;;5048441;28;20371;-69
2022/09/19 04:13:33;;;;;;;4.65;2.03;;;5.40;85.40;;;;;;5036406;28;20025;-70
2022/09/19 04:16:00;;;;;;;6.10;2.40;;;5.40;85.60;;;;;;5048707;28;20060;-71
2022/09/19 04:18:26;;;;;;;4.95;2.55;;;5.30;84.90;;;;;;5048843;28;20025;-70
2022/09/19 04:20:51;;;;;;;7.38;2.95;;;5.30;85.00;;;;;;5046485;28;20017;-71
2022/09/19 04:23:20;;;;;;;9.77;3.00;;;5.20;84.80;;;;;;5050344;28;20025;-70
2022/09/19 04:25:49;;;;;;;5.85;2.97;;;5.10;83.50;;;;;;5039081;28;20029;-71
2022/09/19 04:28:17;;;;;;;5.60;2.72;;;5.00;83.60;;;;;;5051699;28;20036;-70
2022/09/19 04:30:45;;;;;;;11.05;2.90;;;5.00;82.40;;;;;;5053677;28;20040;-70
2022/09/19 04:33:12;;;;;;;9.85;4.00;;;5.00;82.80;;;;;;5053657;28;20112;-70
2022/09/19 04:35:39;;;;;;;11.85;4.07;;;4.90;81.90;;;;;;5051308;28;20050;-69
2022/09/19 04:38:17;;;;;;;9.90;3.30;;;4.90;81.70;;;;;;5052505;28;20028;-70
2022/09/19 04:40:48;;;;;;;7.20;2.78;;;4.90;81.70;;;;;;5045523;28;20052;-72
2022/09/19 04:43:18;;;;;;;8.13;2.55;;;4.90;81.20;;;;;;5054889;28;20099;-71
2022/09/19 04:45:48;;;;;;;7.85;2.60;;;4.90;80.90;;;;;;5026326;28;20473;-70
2022/09/19 04:48:17;;;;;;;7.25;2.70;;;4.80;81.20;;;;;;5036087;28;20033;-70
2022/09/19 04:50:45;;;;;;;5.50;2.20;;;4.90;80.90;;;;;;5055868;28;20292;-69
2022/09/19 04:53:13;;;;;;;8.82;2.20;;;4.90;80.60;;;;;;5051154;28;20035;-70
2022/09/19 04:55:39;;;;;;;7.82;2.50;;;4.90;81.30;;;;;;5052745;28;20387;-70
2022/09/19 04:58:06;;;;;;;5.43;2.22;;;4.80;81.30;;;;;;5050938;28;20104;-70
2022/09/19 05:00:38;;;;;;;8.73;2.15;;;4.90;81.10;;;;;;5050183;28;20029;-70
2022/09/19 05:03:27;;;;;;;6.63;2.20;;;4.90;80.90;;;;;;5045197;28;20025;-70
2022/09/19 05:05:53;;;;;;;7.95;2.70;;;5.00;81.20;;;;;;5047101;28;20033;-70
2022/09/19 05:08:25;;;;;;;11.48;2.95;;;5.00;81.70;;;;;;5045313;28;20055;-69
2022/09/19 05:10:58;;;;;;;11.75;5.97;;;5.10;81.80;;;;;;5053671;28;20057;-70
2022/09/19 05:13:26;;;;;;;6.85;2.75;;;5.00;82.50;;;;;;5051144;28;21106;-70
2022/09/19 05:15:56;;;;;;;9.68;2.90;;;5.00;82.90;;;;;;5026498;28;20025;-70
2022/09/19 05:18:23;;;;;;;7.00;2.65;;;4.90;83.30;;;;;;5052933;28;20036;-69
2022/09/19 05:20:52;;;;;;;6.55;2.78;;;4.90;82.90;;;;;;5028610;28;20649;-70
2022/09/19 05:23:17;;;;;;;9.95;2.97;;;4.90;82.70;;;;;;5044461;28;20048;-70
2022/09/19 05:25:43;;;;;;;7.65;2.60;;;5.00;81.70;;;;;;5054140;28;20053;-70
2022/09/19 05:28:10;;;;;;;9.13;3.03;;;5.00;82.00;;;;;;5044152;28;20033;-69
2022/09/19 05:30:38;;;;;;;10.63;3.28;;;5.10;81.70;;;;;;5035764;28;20087;-70
2022/09/19 05:33:05;;;;;;;6.47;2.50;;;5.20;81.40;;;;;;5052301;28;20017;-70
2022/09/19 05:35:31;;;;;;;9.07;3.40;;;5.30;81.60;;;;;;5051619;28;20425;-69
2022/09/19 05:37:57;;;;;;;11.93;2.97;;;5.40;81.20;;;;;;5059343;28;20036;-70
2022/09/19 05:40:25;;;;;;;7.40;2.30;;;5.40;81.30;;;;;;5048513;28;20033;-70
2022/09/19 05:42:51;;;;;;;12.30;3.40;;;5.50;81.40;;;;;;5021810;28;20152;-70
2022/09/19 05:45:17;;;;;;;6.68;3.03;;;5.60;82.30;;;;;;5038174;28;20029;-70
2022/09/19 05:47:43;;;;;;;9.02;3.20;;;5.60;82.80;;;;;;5058720;28;20037;-70
2022/09/19 05:50:14;;;;;;;8.15;3.20;;;5.70;83.90;;;;;;5057769;28;20036;-70
2022/09/19 05:55:27;;;;;;;6.50;2.65;;;5.80;84.40;;;;;;5054733;28;20040;-70
2022/09/19 05:57:57;;;;;;;10.20;3.20;;;5.80;85.30;;;;;;5055572;28;20143;-70
2022/09/19 06:00:27;;;;;;;9.32;3.10;;;5.80;85.90;;;;;;5056906;28;20017;-69
2022/09/19 06:02:58;;;;;;;8.05;3.15;;;5.90;87.10;;;;;;5038582;28;20025;-70
2022/09/19 06:05:25;;;;;;;7.72;3.45;;;5.90;87.20;;;;;;5057067;28;20090;-70
2022/09/19 06:07:51;;;;;;;9.77;2.70;;;6.00;87.10;;;;;;5050687;28;20025;-69
2022/09/19 06:10:18;;;;;;;6.93;2.92;;;6.00;88.10;;;;;;5050451;28;20028;-71
2022/09/19 06:12:44;;;;;;;8.50;3.13;;;6.00;88.20;;;;;;5049721;28;20029;-70
2022/09/19 06:15:10;;;;;;;6.38;2.83;;;6.00;88.60;;;;;;5050130;28;20060;-69
2022/09/19 06:17:36;;;;;;;10.32;3.20;;;6.00;88.50;;;;;;5046685;28;20032;-70
2022/09/19 06:20:02;;;;;;;9.57;3.22;;;6.00;88.70;;;;;;5049652;28;20029;-70
2022/09/19 06:22:29;;;;;;;8.15;3.45;;;6.10;89.60;;;;;;5045986;28;20108;-70
2022/09/19 06:24:55;;;;;;;8.20;3.00;;;6.10;88.40;;;;;;5056690;28;20039;-70
2022/09/19 06:27:23;;;;;;;10.73;4.18;;;6.20;88.50;;;;;;5057234;28;20501;-70
2022/09/19 06:29:50;;;;;;;7.85;3.08;;;6.30;89.00;;;;;;5054760;28;20043;-70
2022/09/19 06:32:15;;;;;;;8.82;3.15;;;6.40;89.00;;;;;;5023016;28;20029;-70
2022/09/19 06:34:46;;;;;;;8.43;2.80;;;6.50;90.70;;;;;;5038089;28;20124;-69
2022/09/19 06:37:15;;;;;;;8.55;3.40;;;6.40;91.90;;;;;;5038270;28;20029;-69
2022/09/19 06:39:43;;;;;;;7.35;3.17;;;6.50;91.80;;;;;;5026912;28;20078;-70
2022/09/19 06:42:09;;;;;;;9.43;2.90;;;6.50;91.70;;;;;;5058298;28;20044;-70
2022/09/19 06:44:34;;;;;;;9.23;2.70;;;6.60;92.90;;;;;;5056149;28;20354;-70
2022/09/19 06:47:00;;;;;;;8.27;2.75;;;6.70;91.70;;;;;;5055515;28;20039;-70
2022/09/19 06:49:28;;;;;;;6.03;2.45;;;6.90;93.90;;;;;;5052660;28;20029;-69
2022/09/19 06:51:54;;;;;;;10.85;2.85;;;6.90;94.30;;;;;;5013990;28;20038;-69
2022/09/19 06:54:24;;;;;;;6.90;2.58;;;6.90;94.20;;;;;;5039177;28;20110;-69
2022/09/19 06:56:51;;;;;;;9.07;2.50;;;7.00;95.20;;;;;;5037305;28;20044;-68
2022/09/19 06:59:18;;;;;;;9.00;2.53;;;7.00;95.20;;;;;;5035976;28;20021;-68
2022/09/19 07:01:45;;;;;;;12.30;2.67;;;7.00;96.50;;;;;;5040813;28;20114;-68
2022/09/19 07:04:11;;;;;;;11.13;2.67;;;7.20;96.10;;;;;;5036332;28;20029;-68
2022/09/19 07:06:40;;;;;;;8.13;2.58;;;7.20;97.20;;;;;;5040566;28;20025;-69
2022/09/19 07:09:07;;;;;;;6.97;2.90;;;7.40;98.00;;;;;;5052703;28;20025;-70
2022/09/19 07:11:35;;;;;;;8.57;3.00;;;7.50;98.00;;;;;;5045621;28;20029;-70
2022/09/19 07:14:01;;;;;;;8.40;3.38;;;7.60;98.00;;;;;;5051787;28;20325;-69
2022/09/19 07:16:30;;;;;;;9.60;2.90;;;7.60;98.00;;;;;;5050981;28;20036;-68
2022/09/19 07:18:56;;;;;;;11.82;3.13;;;7.70;98.00;;;;;;5051533;28;20052;-69
2022/09/19 07:21:22;;;;;;;8.50;2.47;;;7.80;98.00;;;;;;5041966;28;20068;-69
2022/09/19 07:23:50;;;;;;;13.13;3.30;;;7.80;98.00;;;;;;5056677;28;20028;-68
2022/09/19 07:26:16;;;;;;;8.98;2.42;;;7.90;98.00;;;;;;5050079;28;20321;-69
2022/09/19 07:28:41;;;;;;;6.60;2.83;;;7.90;98.00;;;;;;5055604;28;20119;-69
2022/09/19 07:31:08;;;;;;;8.23;2.30;;;7.90;98.00;;;;;;5056987;28;20306;-69
2022/09/19 07:33:34;;;;;;;8.90;2.85;;;7.90;98.00;;;;;;5039494;28;20036;-69
2022/09/19 07:36:02;;;;;;;9.50;2.65;;;8.00;98.00;;;;;;5057049;28;20037;-69
2022/09/19 07:38:28;;;;;;;14.40;2.72;;;8.10;98.00;;;;;;5056477;28;20029;-69
2022/09/19 07:40:56;;;;;;;9.90;2.50;;;8.20;98.00;;;;;;5055736;28;20028;-69
2022/09/19 07:43:21;;;;;;;9.95;2.30;;;8.30;98.00;;;;;;5036200;28;20313;-68
2022/09/19 07:45:52;;;;;;;10.57;2.58;;;8.30;98.00;;;;;;5044826;28;20078;-69
2022/09/19 07:48:27;;;;;;;10.82;2.40;;;8.40;98.00;;;;;;5056816;28;20051;-69
2022/09/19 07:50:53;;;;;;;8.65;2.67;;;8.50;98.00;;;;;;5038034;28;20025;-69
2022/09/19 07:53:24;;;;;;;7.40;2.10;;;8.60;98.00;;;;;;5023940;28;20488;-69
2022/09/19 07:55:54;;;;;;;9.45;2.58;;;9.00;98.00;;;;;;5042022;28;20032;-71
2022/09/19 07:58:22;;;;;;;6.82;2.15;;;9.20;98.00;;;;;;5036675;28;20427;-69
2022/09/19 08:00:49;;;;;;;8.45;2.80;;;9.30;98.00;;;;;;5036752;28;20025;-69
2022/09/19 08:03:16;;;;;;;8.85;2.65;;;9.40;98.00;;;;;;5038637;28;20028;-68
2022/09/19 08:05:48;;;;;;;9.85;3.33;;;9.20;98.00;;;;;;5040281;28;20030;-69
2022/09/19 08:08:15;;;;;;;11.43;2.60;;;9.30;98.00;;;;;;5042406;28;20021;-70
2022/09/19 08:10:42;;;;;;;10.52;2.70;;;9.50;98.00;;;;;;5053224;28;20310;-69
2022/09/19 08:13:13;;;;;;;9.95;2.80;;;9.60;98.00;;;;;;5038051;28;20028;-68
2022/09/19 08:15:39;;;;;;;16.77;2.90;;;9.60;98.00;;;;;;5038880;28;20112;-68
2022/09/19 08:18:08;;;;;;;11.68;3.40;;;9.40;98.00;;;;;;5056518;28;20025;-69
2022/09/19 08:20:36;;;;;;;9.18;2.53;;;9.30;98.00;;;;;;5038525;28;20052;-68
2022/09/19 08:23:10;;;;;;;10.90;2.80;;;9.20;98.00;;;;;;5054976;28;20328;-69
2022/09/19 08:25:38;;;;;;;15.82;3.13;;;9.20;98.00;;;;;;5050413;28;20025;-69
2022/09/19 08:28:04;;;;;;;12.93;4.05;;;9.10;98.00;;;;;;5055168;28;20083;-69
2022/09/19 08:30:31;;;;;;;9.52;2.53;;;9.10;98.00;;;;;;5056314;28;20025;-68
2022/09/19 08:33:02;;;;;;;14.30;3.78;;;9.20;98.00;;;;;;5056317;28;20402;-69
2022/09/19 08:35:37;;;;;;;7.70;3.03;;;9.20;98.00;;;;;;5055267;28;20037;-69
2022/09/19 08:38:04;;;;;;;10.55;4.03;;;9.20;98.00;;;;;;5055794;28;20087;-69
2022/09/19 08:41:11;;;;;;;12.57;2.75;;;9.20;98.00;;;;;;5052589;28;20092;-69
2022/09/19 08:43:57;;;;;;;18.17;3.20;;;9.20;98.00;;;;;;5050394;28;20337;-69
2022/09/19 08:46:46;;;;;;;11.43;2.67;;;9.30;98.00;;;;;;5046645;28;20048;-69
2022/09/19 08:49:33;;;;;;;9.38;2.50;;;9.40;98.00;;;;;;5054369;28;20033;-69
2022/09/19 08:52:08;;;;;;;11.40;2.42;;;9.60;98.00;;;;;;5027592;28;20029;-71
2022/09/19 08:54:44;;;;;;;11.68;2.78;;;9.70;98.00;;;;;;5046259;28;20033;-68
2022/09/19 08:57:21;;;;;;;11.65;3.20;;;9.80;98.00;;;;;;5054603;28;20083;-69
2022/09/19 08:59:52;;;;;;;13.82;2.70;;;10.00;98.00;;;;;;5038985;28;20028;-69
2022/09/19 09:02:58;;;;;;;11.52;2.42;;;10.10;98.00;;;;;;5037016;28;20029;-69
2022/09/19 09:05:44;;;;;;;10.30;2.42;;;10.10;98.00;;;;;;5016242;28;20326;-69
2022/09/19 09:08:22;;;;;;;9.55;2.75;;;10.00;98.00;;;;;;5054942;28;20025;-70
2022/09/19 09:10:56;;;;;;;11.95;2.78;;;10.10;98.00;;;;;;5052650;28;20445;-69
2022/09/19 09:13:41;;;;;;;;;;;10.10;98.00;;;;;;5038373;28;20162;-69
2022/09/19 09:16:24;;;;;;;14.60;3.60;;;10.20;98.00;;;;;;5053997;28;19913;-69
2022/09/19 09:19:11;;;;;;;9.98;2.75;;;10.30;98.00;;;;;;5037457;28;20028;-70
2022/09/19 09:21:59;;;;;;;12.23;3.05;;;10.30;98.00;;;;;;5055291;28;20033;-69
2022/09/19 09:24:30;;;;;;;11.45;3.13;;;10.30;98.00;;;;;;5054395;28;20025;-69
2022/09/19 09:26:59;;;;;;;7.20;2.10;;;10.10;98.00;;;;;;5055635;28;20032;-69
2022/09/19 09:29:28;;;;;;;10.23;3.05;;;10.00;98.00;;;;;;5054664;28;20096;-70
2022/09/19 09:32:17;;;;;;;8.63;2.78;;;9.70;98.00;;;;;;5036271;28;20075;-71
2022/09/19 09:34:58;;;;;;;16.73;4.82;;;9.40;98.00;;;;;;5035256;28;20079;-72
2022/09/19 09:38:08;;;;;;;13.63;3.75;;;9.20;98.00;;;;;;5035637;28;20044;-71
2022/09/19 09:44:01;;;;;;;10.82;3.55;;;9.30;96.70;;;;;;5036689;28;20333;-71
2022/09/19 09:46:48;;;;;;;11.25;4.30;;;9.60;97.90;;;;;;5004678;28;20116;-71
2022/09/19 09:49:14;;;;;;;11.07;3.70;;;9.80;98.00;;;;;;5054650;28;20028;-69
2022/09/19 09:51:49;;;;;;;10.15;3.30;;;9.90;98.00;;;;;;5054522;28;20025;-70
2022/09/19 09:57:32;;;;;;;13.57;6.55;;;10.10;98.00;;;;;;5042235;28;20052;-69
2022/09/19 10:06:29;;;;;;;15.43;7.43;;;10.60;98.00;;;;;;5055209;28;20083;-71
2022/09/19 10:09:17;;;;;;;10.80;2.60;;;10.80;98.00;;;;;;5053978;28;20322;-69
2022/09/19 10:11:49;;;;;;;13.45;4.18;;;10.70;98.00;;;;;;5043513;28;20033;-70
2022/09/19 10:14:20;;;;;;;9.93;3.53;;;10.70;98.00;;;;;;5035147;28;20407;-70
2022/09/19 10:16:48;;;;;;;18.35;7.18;;;10.70;98.00;;;;;;5034033;28;20049;-73
2022/09/19 10:19:29;;;;;;;10.63;2.85;;;10.50;98.00;;;;;;5038618;28;20418;-70
2022/09/19 10:21:56;;;;;;;11.55;5.55;;;10.60;98.00;;;;;;5053911;28;20040;-70
2022/09/19 10:24:45;;;;;;;14.75;4.00;;;10.70;98.00;;;;;;5057029;28;20021;-70
2022/09/19 10:27:26;;;;;;;14.57;5.10;;;11.00;98.00;;;;;;5056809;28;20422;-70
2022/09/19 10:29:58;;;;;;;9.30;3.00;;;11.20;98.00;;;;;;5056740;28;20029;-70
2022/09/19 10:32:39;;;;;;;9.20;2.45;;;11.30;98.00;;;;;;5058454;28;20436;-70
2022/09/19 10:35:25;;;;;;;11.73;4.07;;;11.50;98.00;;;;;;5058195;28;20196;-69
2022/09/19 10:38:02;;;;;;;9.25;3.00;;;11.70;96.50;;;;;;5058005;28;20025;-71
2022/09/19 10:40:32;;;;;;;7.88;3.10;;;11.70;97.70;;;;;;5033138;28;20029;-69
2022/09/19 10:43:04;;;;;;;8.95;2.90;;;11.80;97.10;;;;;;5038270;28;20026;-70
2022/09/19 10:45:33;;;;;;;7.00;2.17;;;11.70;98.00;;;;;;5038311;28;20029;-70
2022/09/19 10:48:08;;;;;;;11.73;2.90;;;11.50;96.70;;;;;;5037801;28;20028;-69
2022/09/19 10:50:40;;;;;;;11.85;4.82;;;11.50;96.80;;;;;;5057557;28;20108;-70
2022/09/19 10:53:06;;;;;;;5.60;2.40;;;11.40;97.20;;;;;;5057929;28;20025;-70
2022/09/19 10:55:39;;;;;;;7.82;2.70;;;11.30;96.60;;;;;;5038394;28;20461;-70
2022/09/19 10:58:13;;;;;;;11.18;4.05;;;11.20;96.30;;;;;;5050085;28;20045;-69
2022/09/19 11:00:58;;;;;;;8.07;3.90;;;11.30;97.00;;;;;;5020350;28;20029;-70
2022/09/19 11:03:26;;;;;;;7.70;2.40;;;11.40;98.00;;;;;;5041080;28;20021;-70
2022/09/19 11:06:13;;;;;;;9.98;3.90;;;11.50;96.90;;;;;;5057852;28;20095;-69
2022/09/19 11:08:47;;;;;;;7.78;3.00;;;11.60;97.20;;;;;;5057064;28;20078;-70
2022/09/19 11:11:45;;;;;;;9.50;2.50;;;11.60;97.00;;;;;;5052406;28;20025;-70
2022/09/19 11:14:15;;;;;;;8.55;2.80;;;11.50;96.00;;;;;;5025186;28;20123;-69
2022/09/19 11:17:08;;;;;;;7.80;2.60;;;11.50;97.10;;;;;;5039948;28;20163;-69
2022/09/19 11:19:49;;;;;;;8.73;2.95;;;11.90;97.00;;;;;;5056564;28;20028;-69
2022/09/19 11:22:26;;;;;;;6.30;2.63;;;12.10;96.30;;;;;;5029359;28;20025;-69
2022/09/19 11:25:17;;;;;;;6.53;2.20;;;12.00;95.80;;;;;;5055718;28;20017;-69
2022/09/19 11:27:58;;;;;;;8.52;2.60;;;12.00;95.50;;;;;;5041365;28;20108;-69
2022/09/19 11:30:26;;;;;;;9.48;3.20;;;12.00;94.90;;;;;;5055327;28;20085;-70
2022/09/19 11:33:10;;;;;;;11.60;3.80;;;12.10;96.20;;;;;;5044069;28;20029;-68
2022/09/19 11:35:48;;;;;;;7.55;3.00;;;12.10;95.10;;;;;;5048734;28;20304;-70
2022/09/19 11:38:32;;;;;;;7.72;2.17;;;11.80;95.40;;;;;;5055263;28;20039;-69
2022/09/19 11:41:22;;;;;;;8.60;2.42;;;11.90;95.70;;;;;;5055952;28;20100;-69
2022/09/19 11:43:52;;;;;;;7.22;2.13;;;12.20;94.80;;;;;;5053820;28;20503;-70
2022/09/19 11:46:54;;;;;;;10.68;3.00;;;12.30;93.60;;;;;;5057049;28;20032;-69
2022/09/19 11:49:46;;;;;;;5.60;2.03;;;12.30;93.90;;;;;;5037001;28;20022;-70
2022/09/19 11:52:43;;;;;;;5.97;2.42;;;12.30;93.20;;;;;;5040764;28;20024;-69
2022/09/19 11:55:54;;;;;;;10.32;2.63;;;12.40;94.20;;;;;;5040022;28;20041;-71
2022/09/19 11:58:48;;;;;;;6.38;2.20;;;12.70;94.70;;;;;;5038103;28;20128;-69
2022/09/19 12:01:38;;;;;;;7.60;3.42;;;12.90;92.00;;;;;;5055612;28;20410;-68
2022/09/19 12:04:32;;;;;;;14.35;5.10;;;12.60;93.00;;;;;;5054102;28;20053;-70
2022/09/19 12:07:26;;;;;;;13.00;6.63;;;12.40;93.10;;;;;;5047130;28;20083;-69
2022/09/19 12:10:14;;;;;;;7.68;3.50;;;12.70;92.90;;;;;;5055366;28;20037;-69
2022/09/19 12:12:45;;;;;;;5.70;2.25;;;13.00;92.30;;;;;;5055388;28;20028;-69
2022/09/19 12:15:23;;;;;;;8.40;2.60;;;13.20;91.40;;;;;;5056276;28;20033;-69
2022/09/19 12:18:22;;;;;;;6.45;2.55;;;13.40;91.80;;;;;;5054675;28;20346;-69
2022/09/19 12:20:57;;;;;;;6.43;1.83;;;13.70;91.50;;;;;;5010714;28;20635;-69
2022/09/19 12:26:56;;;;;;;7.78;1.48;;;14.70;89.40;;;;;;5049256;28;20395;-69
2022/09/19 12:29:38;;;;;;;6.05;1.63;;;15.30;85.50;;;;;;5044008;28;20086;-69
2022/09/19 12:32:20;;;;;;;4.70;1.20;;;14.50;86.40;;;;;;5056252;28;20063;-69
2022/09/19 12:35:04;;;;;;;6.18;1.35;;;14.10;88.90;;;;;;5036630;28;20045;-69
2022/09/19 12:37:50;;;;;;;4.47;1.40;;;13.90;89.40;;;;;;5054225;28;20032;-69
2022/09/19 12:40:28;;;;;;;7.95;2.00;;;13.90;88.90;;;;;;5035102;28;20028;-69
2022/09/19 12:43:20;;;;;;;6.32;1.55;;;14.00;88.20;;;;;;5042493;28;20100;-70
2022/09/19 12:46:11;;;;;;;4.28;1.40;;;13.80;88.40;;;;;;5044792;28;20089;-68
2022/09/19 12:49:03;;;;;;;3.58;1.13;;;13.60;89.00;;;;;;5035082;28;20036;-68
2022/09/19 12:52:10;;;;;;;5.95;1.40;;;13.50;90.20;;;;;;5035898;28;20029;-68
2022/09/19 12:55:03;;;;;;;7.35;1.38;;;13.40;89.80;;;;;;5014135;28;20041;-68
2022/09/19 12:58:07;;;;;;;5.07;1.40;;;13.40;90.40;;;;;;5022827;28;20021;-69
2022/09/19 13:00:42;;;;;;;6.25;2.13;;;13.60;90.40;;;;;;5035736;28;20104;-70
2022/09/19 13:03:26;;;;;;;3.17;1.08;;;13.80;88.30;;;;;;5045132;28;20483;-69
2022/09/19 13:05:57;;;;;;;5.05;1.20;;;13.60;87.30;;;;;;5055894;28;20342;-69
2022/09/19 13:08:31;;;;;;;5.65;1.65;;;13.30;88.50;;;;;;5054610;28;20048;-69
2022/09/19 13:11:02;;;;;;;5.75;1.70;;;12.80;91.40;;;;;;5053523;28;20029;-70
2022/09/19 13:13:28;;;;;;;7.13;1.58;;;12.60;93.30;;;;;;5050486;28;20310;-70
2022/09/19 13:16:18;;;;;;;5.82;1.80;;;12.40;93.40;;;;;;5053946;28;20021;-70
2022/09/19 13:24:34;;;;;;;5.40;1.75;;;12.20;95.50;;;;;;5052499;28;20036;-71
2022/09/19 13:26:59;;;;;;;6.25;1.73;;;11.80;98.00;;;;;;5050307;28;20414;-72
2022/09/19 13:29:26;;;;;;;7.28;1.80;;;11.20;98.00;;;;;;5037673;28;20033;-73
2022/09/19 13:32:01;;;;;;;5.88;1.65;;;10.80;98.00;;;;;;5036789;28;20024;-73
2022/09/19 13:34:33;;;;;;;5.07;2.00;;;10.50;97.80;;;;;;5025856;28;20168;-72
2022/09/19 13:37:01;;;;;;;7.57;2.85;;;10.40;98.00;;;;;;5035197;28;20026;-72
2022/09/19 13:39:45;;;;;;;4.28;1.60;;;10.50;95.10;;;;;;5024182;28;20021;-71
2022/09/19 13:42:16;;;;;;;5.60;2.03;;;10.60;97.20;;;;;;5048995;28;20055;-72
2022/09/19 13:44:49;;;;;;;7.35;1.85;;;10.70;98.00;;;;;;5051839;28;20022;-72
2022/09/19 13:47:26;;;;;;;4.53;1.52;;;10.70;96.20;;;;;;5053870;28;20337;-72
2022/09/19 13:50:06;;;;;;;4.55;1.42;;;10.80;97.30;;;;;;5052001;28;20033;-72
2022/09/19 13:52:46;;;;;;;3.95;1.58;;;11.00;96.90;;;;;;5052853;28;20021;-72
2022/09/19 13:55:12;;;;;;;10.15;5.85;;;11.20;96.80;;;;;;5051077;28;20021;-72
2022/09/19 13:57:42;;;;;;;9.45;3.05;;;11.50;96.70;;;;;;5024336;28;20091;-72
2022/09/19 14:00:32;;;;;;;5.80;1.95;;;11.60;98.00;;;;;;5053851;28;20013;-72